sensor_id;sensor_type;location;lat;lon;timestamp;P1;durP1;ratioP1;P2;durP2;ratioP2
14892;SDS011;7538;53.626;9.906;2022-07-29T00:01:33;5.35;;;2.33;;
14892;SDS011;7538;53.626;9.906;2022-07-29T00:04:00;2.75;;;1.60;;
14892;SDS011;7538;53.626;9.906;2022-07-29T00:06:27;2.55;;;1.75;;
14892;SDS011;7538;53.626;9.906;2022-07-29T00:08:54;2.85;;;1.70;;
14892;SDS011;7538;53.626;9.906;2022-07-29T00:11:21;3.17;;;1.83;;
14892;SDS011;7538;53.626;9.906;2022-07-29T00:13:48;3.92;;;1.67;;
14892;SDS011;7538;53.626;9.906;2022-07-29T00:16:17;2.85;;;1.52;;
14892;SDS011;7538;53.626;9.906;2022-07-29T00:18:43;2.40;;;1.70;;
14892;SDS011;7538;53.626;9.906;2022-07-29T00:21:11;3.25;;;1.70;;
14892;SDS011;7538;53.626;9.906;2022-07-29T00:23:38;3.25;;;1.52;;
14892;SDS011;7538;53.626;9.906;2022-07-29T00:26:04;3.50;;;2.70;;
14892;SDS011;7538;53.626;9.906;2022-07-29T00:28:32;3.35;;;2.05;;
14892;SDS011;7538;53.626;9.906;2022-07-29T00:30:59;4.22;;;2.10;;
14892;SDS011;7538;53.626;9.906;2022-07-29T00:33:27;2.63;;;1.60;;
14892;SDS011;7538;53.626;9.906;2022-07-29T00:35:54;4.18;;;2.15;;
14892;SDS011;7538;53.626;9.906;2022-07-29T00:38:20;4.20;;;1.95;;
14892;SDS011;7538;53.626;9.906;2022-07-29T00:40:48;2.40;;;1.98;;
14892;SDS011;7538;53.626;9.906;2022-07-29T00:43:14;3.47;;;1.80;;
14892;SDS011;7538;53.626;9.906;2022-07-29T00:45:42;2.55;;;1.77;;
14892;SDS011;7538;53.626;9.906;2022-07-29T00:48:09;3.80;;;2.10;;
14892;SDS011;7538;53.626;9.906;2022-07-29T00:50:37;3.85;;;1.80;;
14892;SDS011;7538;53.626;9.906;2022-07-29T00:53:05;3.97;;;1.75;;
14892;SDS011;7538;53.626;9.906;2022-07-29T00:55:33;2.20;;;1.90;;
14892;SDS011;7538;53.626;9.906;2022-07-29T00:58:00;2.95;;;1.55;;
14892;SDS011;7538;53.626;9.906;2022-07-29T01:00:28;2.17;;;1.85;;
14892;SDS011;7538;53.626;9.906;2022-07-29T01:02:55;3.10;;;1.95;;
14892;SDS011;7538;53.626;9.906;2022-07-29T01:05:23;3.88;;;2.22;;
14892;SDS011;7538;53.626;9.906;2022-07-29T01:07:53;2.63;;;1.77;;
14892;SDS011;7538;53.626;9.906;2022-07-29T01:10:21;4.75;;;2.00;;
14892;SDS011;7538;53.626;9.906;2022-07-29T01:12:50;3.17;;;2.00;;
14892;SDS011;7538;53.626;9.906;2022-07-29T01:15:18;2.40;;;1.98;;
14892;SDS011;7538;53.626;9.906;2022-07-29T01:17:46;3.22;;;1.92;;
14892;SDS011;7538;53.626;9.906;2022-07-29T01:20:20;2.80;;;1.90;;
14892;SDS011;7538;53.626;9.906;2022-07-29T01:22:59;3.78;;;2.33;;
14892;SDS011;7538;53.626;9.906;2022-07-29T01:25:43;2.88;;;1.63;;
14892;SDS011;7538;53.626;9.906;2022-07-29T01:28:44;3.60;;;2.25;;
14892;SDS011;7538;53.626;9.906;2022-07-29T01:31:19;2.65;;;1.75;;
14892;SDS011;7538;53.626;9.906;2022-07-29T01:33:51;1.80;;;1.70;;
14892;SDS011;7538;53.626;9.906;2022-07-29T01:36:25;3.03;;;1.90;;
14892;SDS011;7538;53.626;9.906;2022-07-29T01:38:59;3.03;;;1.70;;
14892;SDS011;7538;53.626;9.906;2022-07-29T01:41:34;3.08;;;2.20;;
14892;SDS011;7538;53.626;9.906;2022-07-29T01:44:07;2.80;;;1.90;;
14892;SDS011;7538;53.626;9.906;2022-07-29T01:46:39;5.85;;;2.20;;
14892;SDS011;7538;53.626;9.906;2022-07-29T01:49:11;2.83;;;1.90;;
14892;SDS011;7538;53.626;9.906;2022-07-29T01:51:42;4.47;;;2.40;;
14892;SDS011;7538;53.626;9.906;2022-07-29T01:54:13;6.22;;;2.20;;
14892;SDS011;7538;53.626;9.906;2022-07-29T01:56:45;3.83;;;1.98;;
14892;SDS011;7538;53.626;9.906;2022-07-29T01:59:17;3.10;;;1.90;;
14892;SDS011;7538;53.626;9.906;2022-07-29T02:01:45;5.60;;;2.40;;
14892;SDS011;7538;53.626;9.906;2022-07-29T02:04:14;3.83;;;2.08;;
14892;SDS011;7538;53.626;9.906;2022-07-29T02:06:42;3.38;;;1.73;;
14892;SDS011;7538;53.626;9.906;2022-07-29T02:09:12;2.90;;;1.83;;
14892;SDS011;7538;53.626;9.906;2022-07-29T02:11:40;4.97;;;2.08;;
14892;SDS011;7538;53.626;9.906;2022-07-29T02:14:16;4.63;;;2.08;;
14892;SDS011;7538;53.626;9.906;2022-07-29T02:16:44;3.30;;;2.22;;
14892;SDS011;7538;53.626;9.906;2022-07-29T02:19:13;4.20;;;2.45;;
14892;SDS011;7538;53.626;9.906;2022-07-29T02:21:43;3.50;;;2.58;;
14892;SDS011;7538;53.626;9.906;2022-07-29T02:24:12;4.03;;;2.33;;
14892;SDS011;7538;53.626;9.906;2022-07-29T02:26:42;4.90;;;2.55;;
14892;SDS011;7538;53.626;9.906;2022-07-29T02:29:10;3.25;;;2.20;;
14892;SDS011;7538;53.626;9.906;2022-07-29T02:31:41;5.43;;;2.15;;
14892;SDS011;7538;53.626;9.906;2022-07-29T02:34:12;2.97;;;2.08;;
14892;SDS011;7538;53.626;9.906;2022-07-29T02:36:40;3.15;;;2.10;;
14892;SDS011;7538;53.626;9.906;2022-07-29T02:39:10;4.38;;;2.67;;
14892;SDS011;7538;53.626;9.906;2022-07-29T02:41:40;5.40;;;2.25;;
14892;SDS011;7538;53.626;9.906;2022-07-29T02:44:10;4.80;;;2.30;;
14892;SDS011;7538;53.626;9.906;2022-07-29T02:46:41;3.28;;;2.17;;
14892;SDS011;7538;53.626;9.906;2022-07-29T02:49:16;5.13;;;2.58;;
14892;SDS011;7538;53.626;9.906;2022-07-29T02:51:54;6.68;;;2.33;;
14892;SDS011;7538;53.626;9.906;2022-07-29T02:54:27;4.55;;;2.70;;
14892;SDS011;7538;53.626;9.906;2022-07-29T02:57:00;5.38;;;2.67;;
14892;SDS011;7538;53.626;9.906;2022-07-29T02:59:32;5.45;;;2.95;;
14892;SDS011;7538;53.626;9.906;2022-07-29T03:02:03;5.40;;;2.70;;
14892;SDS011;7538;53.626;9.906;2022-07-29T03:04:31;5.53;;;2.53;;
14892;SDS011;7538;53.626;9.906;2022-07-29T03:06:59;6.60;;;2.50;;
14892;SDS011;7538;53.626;9.906;2022-07-29T03:09:27;3.10;;;2.25;;
14892;SDS011;7538;53.626;9.906;2022-07-29T03:11:55;3.75;;;2.67;;
14892;SDS011;7538;53.626;9.906;2022-07-29T03:14:23;3.95;;;2.30;;
14892;SDS011;7538;53.626;9.906;2022-07-29T03:16:51;3.13;;;2.53;;
14892;SDS011;7538;53.626;9.906;2022-07-29T03:19:20;4.70;;;2.38;;
14892;SDS011;7538;53.626;9.906;2022-07-29T03:21:47;5.57;;;2.42;;
14892;SDS011;7538;53.626;9.906;2022-07-29T03:24:26;4.75;;;2.85;;
14892;SDS011;7538;53.626;9.906;2022-07-29T03:26:54;7.03;;;2.53;;
14892;SDS011;7538;53.626;9.906;2022-07-29T03:29:22;3.95;;;2.53;;
14892;SDS011;7538;53.626;9.906;2022-07-29T03:31:49;5.28;;;2.50;;
14892;SDS011;7538;53.626;9.906;2022-07-29T03:34:16;3.45;;;2.38;;
14892;SDS011;7538;53.626;9.906;2022-07-29T03:36:45;6.32;;;2.58;;
14892;SDS011;7538;53.626;9.906;2022-07-29T03:39:12;3.97;;;2.72;;
14892;SDS011;7538;53.626;9.906;2022-07-29T03:41:42;4.45;;;2.40;;
14892;SDS011;7538;53.626;9.906;2022-07-29T03:44:13;4.88;;;2.50;;
14892;SDS011;7538;53.626;9.906;2022-07-29T03:46:42;3.38;;;2.30;;
14892;SDS011;7538;53.626;9.906;2022-07-29T03:49:10;4.80;;;2.42;;
14892;SDS011;7538;53.626;9.906;2022-07-29T03:51:39;5.43;;;2.40;;
14892;SDS011;7538;53.626;9.906;2022-07-29T03:54:08;5.35;;;2.40;;
14892;SDS011;7538;53.626;9.906;2022-07-29T03:56:37;5.03;;;2.55;;
14892;SDS011;7538;53.626;9.906;2022-07-29T03:59:05;5.45;;;2.92;;
14892;SDS011;7538;53.626;9.906;2022-07-29T04:01:33;3.63;;;2.40;;
14892;SDS011;7538;53.626;9.906;2022-07-29T04:04:01;4.78;;;2.65;;
14892;SDS011;7538;53.626;9.906;2022-07-29T04:06:36;4.43;;;2.67;;
14892;SDS011;7538;53.626;9.906;2022-07-29T04:09:04;5.43;;;2.92;;
14892;SDS011;7538;53.626;9.906;2022-07-29T04:11:33;5.30;;;2.80;;
14892;SDS011;7538;53.626;9.906;2022-07-29T04:14:00;4.05;;;2.50;;
14892;SDS011;7538;53.626;9.906;2022-07-29T04:16:27;3.08;;;2.30;;
14892;SDS011;7538;53.626;9.906;2022-07-29T04:18:54;4.72;;;2.70;;
14892;SDS011;7538;53.626;9.906;2022-07-29T04:21:21;3.00;;;2.50;;
14892;SDS011;7538;53.626;9.906;2022-07-29T04:23:48;4.45;;;2.58;;
14892;SDS011;7538;53.626;9.906;2022-07-29T04:26:18;4.50;;;2.58;;
14892;SDS011;7538;53.626;9.906;2022-07-29T04:28:47;4.80;;;2.67;;
14892;SDS011;7538;53.626;9.906;2022-07-29T04:31:14;4.47;;;2.85;;
14892;SDS011;7538;53.626;9.906;2022-07-29T04:33:41;6.75;;;2.80;;
14892;SDS011;7538;53.626;9.906;2022-07-29T04:36:08;5.32;;;2.42;;
14892;SDS011;7538;53.626;9.906;2022-07-29T04:38:36;4.15;;;2.70;;
14892;SDS011;7538;53.626;9.906;2022-07-29T04:41:03;4.68;;;3.05;;
14892;SDS011;7538;53.626;9.906;2022-07-29T04:43:31;4.47;;;2.45;;
14892;SDS011;7538;53.626;9.906;2022-07-29T04:46:00;3.58;;;2.80;;
14892;SDS011;7538;53.626;9.906;2022-07-29T04:48:27;6.20;;;2.80;;
14892;SDS011;7538;53.626;9.906;2022-07-29T04:50:54;6.95;;;3.20;;
14892;SDS011;7538;53.626;9.906;2022-07-29T04:53:21;5.93;;;2.80;;
14892;SDS011;7538;53.626;9.906;2022-07-29T04:55:48;3.83;;;2.60;;
14892;SDS011;7538;53.626;9.906;2022-07-29T04:58:14;5.68;;;2.90;;
14892;SDS011;7538;53.626;9.906;2022-07-29T05:00:42;4.07;;;2.88;;
14892;SDS011;7538;53.626;9.906;2022-07-29T05:03:10;5.70;;;2.72;;
14892;SDS011;7538;53.626;9.906;2022-07-29T05:05:37;4.03;;;2.70;;
14892;SDS011;7538;53.626;9.906;2022-07-29T05:08:04;8.38;;;3.05;;
14892;SDS011;7538;53.626;9.906;2022-07-29T05:10:31;6.00;;;2.75;;
14892;SDS011;7538;53.626;9.906;2022-07-29T05:13:00;5.15;;;2.60;;
14892;SDS011;7538;53.626;9.906;2022-07-29T05:15:27;5.30;;;2.63;;
14892;SDS011;7538;53.626;9.906;2022-07-29T05:17:54;4.07;;;2.85;;
14892;SDS011;7538;53.626;9.906;2022-07-29T05:20:23;5.95;;;2.92;;
14892;SDS011;7538;53.626;9.906;2022-07-29T05:22:53;5.80;;;2.70;;
14892;SDS011;7538;53.626;9.906;2022-07-29T05:25:20;6.15;;;2.90;;
14892;SDS011;7538;53.626;9.906;2022-07-29T05:27:47;5.75;;;2.67;;
14892;SDS011;7538;53.626;9.906;2022-07-29T05:30:14;6.50;;;3.15;;
14892;SDS011;7538;53.626;9.906;2022-07-29T05:32:41;6.78;;;3.00;;
14892;SDS011;7538;53.626;9.906;2022-07-29T05:35:08;6.38;;;2.75;;
14892;SDS011;7538;53.626;9.906;2022-07-29T05:37:36;4.93;;;2.92;;
14892;SDS011;7538;53.626;9.906;2022-07-29T05:40:04;4.80;;;2.70;;
14892;SDS011;7538;53.626;9.906;2022-07-29T05:42:32;5.20;;;2.85;;
14892;SDS011;7538;53.626;9.906;2022-07-29T05:44:59;5.45;;;2.83;;
14892;SDS011;7538;53.626;9.906;2022-07-29T05:47:26;6.63;;;2.92;;
14892;SDS011;7538;53.626;9.906;2022-07-29T05:49:53;4.63;;;2.90;;
14892;SDS011;7538;53.626;9.906;2022-07-29T05:52:20;5.32;;;3.13;;
14892;SDS011;7538;53.626;9.906;2022-07-29T05:54:48;4.07;;;2.60;;
14892;SDS011;7538;53.626;9.906;2022-07-29T05:57:16;4.93;;;2.63;;
14892;SDS011;7538;53.626;9.906;2022-07-29T05:59:43;7.22;;;3.00;;
14892;SDS011;7538;53.626;9.906;2022-07-29T06:02:10;4.97;;;3.00;;
14892;SDS011;7538;53.626;9.906;2022-07-29T06:04:37;6.00;;;3.05;;
14892;SDS011;7538;53.626;9.906;2022-07-29T06:07:04;4.53;;;3.13;;
14892;SDS011;7538;53.626;9.906;2022-07-29T06:09:31;4.80;;;2.85;;
14892;SDS011;7538;53.626;9.906;2022-07-29T06:11:59;5.75;;;3.05;;
14892;SDS011;7538;53.626;9.906;2022-07-29T06:14:26;4.25;;;2.95;;
14892;SDS011;7538;53.626;9.906;2022-07-29T06:16:53;4.40;;;3.03;;
14892;SDS011;7538;53.626;9.906;2022-07-29T06:19:20;4.63;;;2.70;;
14892;SDS011;7538;53.626;9.906;2022-07-29T06:21:47;4.10;;;2.55;;
14892;SDS011;7538;53.626;9.906;2022-07-29T06:24:14;4.68;;;2.58;;
14892;SDS011;7538;53.626;9.906;2022-07-29T06:26:42;5.53;;;2.97;;
14892;SDS011;7538;53.626;9.906;2022-07-29T06:29:10;7.53;;;3.15;;
14892;SDS011;7538;53.626;9.906;2022-07-29T06:31:37;5.13;;;2.92;;
14892;SDS011;7538;53.626;9.906;2022-07-29T06:34:05;7.68;;;3.25;;
14892;SDS011;7538;53.626;9.906;2022-07-29T06:36:33;4.45;;;2.50;;
14892;SDS011;7538;53.626;9.906;2022-07-29T06:39:01;6.93;;;3.35;;
14892;SDS011;7538;53.626;9.906;2022-07-29T06:41:29;5.00;;;2.58;;
14892;SDS011;7538;53.626;9.906;2022-07-29T06:43:56;4.95;;;3.25;;
14892;SDS011;7538;53.626;9.906;2022-07-29T06:46:26;4.68;;;2.60;;
14892;SDS011;7538;53.626;9.906;2022-07-29T06:48:54;3.95;;;2.67;;
14892;SDS011;7538;53.626;9.906;2022-07-29T06:51:21;4.32;;;3.00;;
14892;SDS011;7538;53.626;9.906;2022-07-29T06:53:48;3.78;;;2.72;;
14892;SDS011;7538;53.626;9.906;2022-07-29T06:56:14;6.38;;;3.10;;
14892;SDS011;7538;53.626;9.906;2022-07-29T06:58:41;3.65;;;2.75;;
14892;SDS011;7538;53.626;9.906;2022-07-29T07:01:08;4.47;;;2.67;;
14892;SDS011;7538;53.626;9.906;2022-07-29T07:03:36;4.72;;;2.60;;
14892;SDS011;7538;53.626;9.906;2022-07-29T07:06:03;4.55;;;2.65;;
14892;SDS011;7538;53.626;9.906;2022-07-29T07:08:30;3.05;;;2.40;;
14892;SDS011;7538;53.626;9.906;2022-07-29T07:10:57;3.60;;;2.55;;
14892;SDS011;7538;53.626;9.906;2022-07-29T07:13:24;3.83;;;2.25;;
14892;SDS011;7538;53.626;9.906;2022-07-29T07:15:51;3.92;;;2.72;;
14892;SDS011;7538;53.626;9.906;2022-07-29T07:18:18;5.07;;;2.78;;
14892;SDS011;7538;53.626;9.906;2022-07-29T07:20:46;3.88;;;2.33;;
14892;SDS011;7538;53.626;9.906;2022-07-29T07:23:13;6.32;;;2.70;;
14892;SDS011;7538;53.626;9.906;2022-07-29T07:25:40;2.60;;;2.38;;
14892;SDS011;7538;53.626;9.906;2022-07-29T07:28:07;4.95;;;2.47;;
14892;SDS011;7538;53.626;9.906;2022-07-29T07:30:34;4.60;;;2.53;;
14892;SDS011;7538;53.626;9.906;2022-07-29T07:33:01;6.35;;;2.70;;
14892;SDS011;7538;53.626;9.906;2022-07-29T07:35:28;4.75;;;2.45;;
14892;SDS011;7538;53.626;9.906;2022-07-29T07:37:56;2.90;;;2.42;;
14892;SDS011;7538;53.626;9.906;2022-07-29T07:40:24;4.47;;;2.38;;
14892;SDS011;7538;53.626;9.906;2022-07-29T07:42:51;4.20;;;2.55;;
14892;SDS011;7538;53.626;9.906;2022-07-29T07:45:18;3.97;;;2.20;;
14892;SDS011;7538;53.626;9.906;2022-07-29T07:47:44;4.80;;;2.45;;
14892;SDS011;7538;53.626;9.906;2022-07-29T07:50:11;3.83;;;2.13;;
14892;SDS011;7538;53.626;9.906;2022-07-29T07:52:46;4.72;;;2.78;;
14892;SDS011;7538;53.626;9.906;2022-07-29T07:55:15;3.90;;;2.72;;
14892;SDS011;7538;53.626;9.906;2022-07-29T07:57:42;3.33;;;2.50;;
14892;SDS011;7538;53.626;9.906;2022-07-29T08:00:10;4.82;;;2.60;;
14892;SDS011;7538;53.626;9.906;2022-07-29T08:02:38;5.22;;;2.70;;
14892;SDS011;7538;53.626;9.906;2022-07-29T08:05:05;2.83;;;2.50;;
14892;SDS011;7538;53.626;9.906;2022-07-29T08:07:33;5.07;;;2.72;;
14892;SDS011;7538;53.626;9.906;2022-07-29T08:10:00;5.50;;;2.90;;
14892;SDS011;7538;53.626;9.906;2022-07-29T08:12:29;3.38;;;2.50;;
14892;SDS011;7538;53.626;9.906;2022-07-29T08:14:56;4.82;;;2.50;;
14892;SDS011;7538;53.626;9.906;2022-07-29T08:17:22;3.95;;;2.75;;
14892;SDS011;7538;53.626;9.906;2022-07-29T08:19:49;4.55;;;2.83;;
14892;SDS011;7538;53.626;9.906;2022-07-29T08:22:16;3.58;;;2.40;;
14892;SDS011;7538;53.626;9.906;2022-07-29T08:24:43;2.90;;;2.35;;
14892;SDS011;7538;53.626;9.906;2022-07-29T08:27:17;3.20;;;2.45;;
14892;SDS011;7538;53.626;9.906;2022-07-29T08:29:45;5.18;;;2.40;;
14892;SDS011;7538;53.626;9.906;2022-07-29T08:32:12;2.97;;;2.70;;
14892;SDS011;7538;53.626;9.906;2022-07-29T08:34:39;3.45;;;2.30;;
14892;SDS011;7538;53.626;9.906;2022-07-29T08:37:06;3.67;;;2.80;;
14892;SDS011;7538;53.626;9.906;2022-07-29T08:39:33;3.88;;;2.30;;
14892;SDS011;7538;53.626;9.906;2022-07-29T08:42:00;3.47;;;2.55;;
14892;SDS011;7538;53.626;9.906;2022-07-29T08:44:26;4.15;;;2.63;;
14892;SDS011;7538;53.626;9.906;2022-07-29T08:46:55;6.18;;;2.53;;
14892;SDS011;7538;53.626;9.906;2022-07-29T08:49:21;4.80;;;2.50;;
14892;SDS011;7538;53.626;9.906;2022-07-29T08:51:48;5.18;;;2.53;;
14892;SDS011;7538;53.626;9.906;2022-07-29T08:54:17;5.22;;;2.60;;
14892;SDS011;7538;53.626;9.906;2022-07-29T08:56:44;3.20;;;2.10;;
14892;SDS011;7538;53.626;9.906;2022-07-29T08:59:14;3.58;;;2.50;;
14892;SDS011;7538;53.626;9.906;2022-07-29T09:01:44;5.13;;;2.80;;
14892;SDS011;7538;53.626;9.906;2022-07-29T09:04:15;7.05;;;2.92;;
14892;SDS011;7538;53.626;9.906;2022-07-29T09:06:43;5.20;;;2.30;;
14892;SDS011;7538;53.626;9.906;2022-07-29T09:09:12;5.22;;;2.70;;
14892;SDS011;7538;53.626;9.906;2022-07-29T09:11:40;5.22;;;2.47;;
14892;SDS011;7538;53.626;9.906;2022-07-29T09:14:07;4.18;;;2.50;;
14892;SDS011;7538;53.626;9.906;2022-07-29T09:16:46;3.35;;;2.55;;
14892;SDS011;7538;53.626;9.906;2022-07-29T09:19:22;3.35;;;2.50;;
14892;SDS011;7538;53.626;9.906;2022-07-29T09:21:55;4.82;;;2.85;;
14892;SDS011;7538;53.626;9.906;2022-07-29T09:27:10;4.38;;;2.83;;
14892;SDS011;7538;53.626;9.906;2022-07-29T09:29:44;4.80;;;2.47;;
14892;SDS011;7538;53.626;9.906;2022-07-29T09:32:10;7.88;;;2.72;;
14892;SDS011;7538;53.626;9.906;2022-07-29T09:34:39;3.58;;;2.35;;
14892;SDS011;7538;53.626;9.906;2022-07-29T09:37:06;3.75;;;2.13;;
14892;SDS011;7538;53.626;9.906;2022-07-29T09:39:33;6.38;;;2.47;;
14892;SDS011;7538;53.626;9.906;2022-07-29T09:42:03;3.80;;;2.38;;
14892;SDS011;7538;53.626;9.906;2022-07-29T09:44:41;6.05;;;2.60;;
14892;SDS011;7538;53.626;9.906;2022-07-29T09:47:10;3.88;;;2.70;;
14892;SDS011;7538;53.626;9.906;2022-07-29T09:49:51;4.20;;;2.28;;
14892;SDS011;7538;53.626;9.906;2022-07-29T09:52:19;3.53;;;2.05;;
14892;SDS011;7538;53.626;9.906;2022-07-29T09:54:47;4.85;;;2.20;;
14892;SDS011;7538;53.626;9.906;2022-07-29T09:57:24;2.85;;;1.90;;
14892;SDS011;7538;53.626;9.906;2022-07-29T09:59:59;4.57;;;2.20;;
14892;SDS011;7538;53.626;9.906;2022-07-29T10:02:27;3.47;;;2.50;;
14892;SDS011;7538;53.626;9.906;2022-07-29T10:04:57;5.07;;;2.28;;
14892;SDS011;7538;53.626;9.906;2022-07-29T10:07:25;3.10;;;2.10;;
14892;SDS011;7538;53.626;9.906;2022-07-29T10:09:53;4.82;;;2.00;;
14892;SDS011;7538;53.626;9.906;2022-07-29T10:12:23;4.57;;;2.30;;
14892;SDS011;7538;53.626;9.906;2022-07-29T10:14:50;3.67;;;2.00;;
14892;SDS011;7538;53.626;9.906;2022-07-29T10:17:17;7.13;;;2.00;;
14892;SDS011;7538;53.626;9.906;2022-07-29T10:19:45;4.60;;;1.92;;
14892;SDS011;7538;53.626;9.906;2022-07-29T10:22:15;2.85;;;2.00;;
14892;SDS011;7538;53.626;9.906;2022-07-29T10:24:42;3.78;;;2.10;;
14892;SDS011;7538;53.626;9.906;2022-07-29T10:27:09;2.80;;;1.90;;
14892;SDS011;7538;53.626;9.906;2022-07-29T10:29:36;3.42;;;1.85;;
14892;SDS011;7538;53.626;9.906;2022-07-29T10:32:11;4.57;;;2.03;;
14892;SDS011;7538;53.626;9.906;2022-07-29T10:34:52;6.00;;;2.10;;
14892;SDS011;7538;53.626;9.906;2022-07-29T10:37:37;2.72;;;2.03;;
14892;SDS011;7538;53.626;9.906;2022-07-29T10:40:21;4.22;;;2.22;;
14892;SDS011;7538;53.626;9.906;2022-07-29T10:43:15;6.13;;;2.38;;
14892;SDS011;7538;53.626;9.906;2022-07-29T10:45:45;3.70;;;1.90;;
14892;SDS011;7538;53.626;9.906;2022-07-29T10:48:13;4.45;;;2.50;;
14892;SDS011;7538;53.626;9.906;2022-07-29T10:50:53;3.72;;;2.33;;
14892;SDS011;7538;53.626;9.906;2022-07-29T10:53:23;5.40;;;2.33;;
14892;SDS011;7538;53.626;9.906;2022-07-29T10:55:51;4.90;;;2.38;;
14892;SDS011;7538;53.626;9.906;2022-07-29T10:58:19;3.35;;;2.00;;
14892;SDS011;7538;53.626;9.906;2022-07-29T11:00:48;2.80;;;1.77;;
14892;SDS011;7538;53.626;9.906;2022-07-29T11:06:11;5.00;;;2.20;;
14892;SDS011;7538;53.626;9.906;2022-07-29T11:08:40;3.95;;;2.15;;
14892;SDS011;7538;53.626;9.906;2022-07-29T11:14:05;2.63;;;1.80;;
14892;SDS011;7538;53.626;9.906;2022-07-29T11:19:24;6.35;;;2.28;;
14892;SDS011;7538;53.626;9.906;2022-07-29T11:21:51;4.07;;;1.88;;
14892;SDS011;7538;53.626;9.906;2022-07-29T11:24:21;3.47;;;1.90;;
14892;SDS011;7538;53.626;9.906;2022-07-29T11:27:05;2.75;;;1.77;;
14892;SDS011;7538;53.626;9.906;2022-07-29T11:29:33;2.13;;;1.80;;
14892;SDS011;7538;53.626;9.906;2022-07-29T11:32:11;5.53;;;2.10;;
14892;SDS011;7538;53.626;9.906;2022-07-29T11:34:39;2.08;;;1.90;;
14892;SDS011;7538;53.626;9.906;2022-07-29T11:40:12;4.18;;;1.80;;
14892;SDS011;7538;53.626;9.906;2022-07-29T11:42:44;5.90;;;1.80;;
14892;SDS011;7538;53.626;9.906;2022-07-29T11:45:19;3.78;;;2.00;;
14892;SDS011;7538;53.626;9.906;2022-07-29T11:47:53;5.95;;;2.42;;
14892;SDS011;7538;53.626;9.906;2022-07-29T11:50:27;3.72;;;1.92;;
14892;SDS011;7538;53.626;9.906;2022-07-29T11:52:56;3.65;;;2.25;;
14892;SDS011;7538;53.626;9.906;2022-07-29T11:55:24;3.20;;;1.98;;
14892;SDS011;7538;53.626;9.906;2022-07-29T11:57:52;3.22;;;1.88;;
14892;SDS011;7538;53.626;9.906;2022-07-29T12:00:20;3.03;;;1.88;;
14892;SDS011;7538;53.626;9.906;2022-07-29T12:02:50;2.90;;;1.60;;
14892;SDS011;7538;53.626;9.906;2022-07-29T12:05:17;4.00;;;1.85;;
14892;SDS011;7538;53.626;9.906;2022-07-29T12:07:45;4.60;;;2.03;;
14892;SDS011;7538;53.626;9.906;2022-07-29T12:10:13;6.20;;;1.85;;
14892;SDS011;7538;53.626;9.906;2022-07-29T12:12:42;3.83;;;1.60;;
14892;SDS011;7538;53.626;9.906;2022-07-29T12:15:12;4.15;;;1.80;;
14892;SDS011;7538;53.626;9.906;2022-07-29T12:17:42;3.40;;;1.85;;
14892;SDS011;7538;53.626;9.906;2022-07-29T12:20:09;2.85;;;1.83;;
14892;SDS011;7538;53.626;9.906;2022-07-29T12:22:38;6.00;;;2.10;;
14892;SDS011;7538;53.626;9.906;2022-07-29T12:25:07;7.07;;;2.20;;
14892;SDS011;7538;53.626;9.906;2022-07-29T12:27:35;5.57;;;1.80;;
14892;SDS011;7538;53.626;9.906;2022-07-29T12:30:05;3.05;;;1.70;;
14892;SDS011;7538;53.626;9.906;2022-07-29T12:32:33;5.30;;;2.08;;
14892;SDS011;7538;53.626;9.906;2022-07-29T12:35:02;5.60;;;2.03;;
14892;SDS011;7538;53.626;9.906;2022-07-29T12:37:30;4.57;;;1.90;;
14892;SDS011;7538;53.626;9.906;2022-07-29T12:39:59;3.47;;;1.90;;
14892;SDS011;7538;53.626;9.906;2022-07-29T12:42:26;8.02;;;2.20;;
14892;SDS011;7538;53.626;9.906;2022-07-29T12:44:53;5.97;;;2.00;;
14892;SDS011;7538;53.626;9.906;2022-07-29T12:47:21;3.63;;;1.80;;
14892;SDS011;7538;53.626;9.906;2022-07-29T12:49:48;2.72;;;1.80;;
14892;SDS011;7538;53.626;9.906;2022-07-29T12:52:23;4.63;;;1.67;;
14892;SDS011;7538;53.626;9.906;2022-07-29T12:54:51;2.65;;;1.75;;
14892;SDS011;7538;53.626;9.906;2022-07-29T12:57:18;3.83;;;1.63;;
14892;SDS011;7538;53.626;9.906;2022-07-29T12:59:44;2.60;;;1.83;;
14892;SDS011;7538;53.626;9.906;2022-07-29T13:02:25;5.70;;;2.00;;
14892;SDS011;7538;53.626;9.906;2022-07-29T13:04:55;4.28;;;2.10;;
14892;SDS011;7538;53.626;9.906;2022-07-29T13:07:24;5.32;;;1.95;;
14892;SDS011;7538;53.626;9.906;2022-07-29T13:09:52;4.20;;;1.90;;
14892;SDS011;7538;53.626;9.906;2022-07-29T13:12:19;2.33;;;1.60;;
14892;SDS011;7538;53.626;9.906;2022-07-29T13:14:47;4.35;;;2.00;;
14892;SDS011;7538;53.626;9.906;2022-07-29T13:17:15;4.95;;;2.10;;
14892;SDS011;7538;53.626;9.906;2022-07-29T13:19:45;5.47;;;2.28;;
14892;SDS011;7538;53.626;9.906;2022-07-29T13:22:14;4.40;;;2.10;;
14892;SDS011;7538;53.626;9.906;2022-07-29T13:24:45;3.35;;;1.90;;
14892;SDS011;7538;53.626;9.906;2022-07-29T13:27:13;4.13;;;2.13;;
14892;SDS011;7538;53.626;9.906;2022-07-29T13:29:40;6.65;;;2.38;;
14892;SDS011;7538;53.626;9.906;2022-07-29T13:32:07;4.35;;;2.63;;
14892;SDS011;7538;53.626;9.906;2022-07-29T13:34:34;4.20;;;2.63;;
14892;SDS011;7538;53.626;9.906;2022-07-29T13:37:02;4.65;;;2.15;;
14892;SDS011;7538;53.626;9.906;2022-07-29T13:39:29;4.90;;;2.00;;
14892;SDS011;7538;53.626;9.906;2022-07-29T13:41:56;4.55;;;2.60;;
14892;SDS011;7538;53.626;9.906;2022-07-29T13:44:23;4.32;;;2.30;;
14892;SDS011;7538;53.626;9.906;2022-07-29T13:46:49;8.88;;;2.50;;
14892;SDS011;7538;53.626;9.906;2022-07-29T13:49:16;6.45;;;2.50;;
14892;SDS011;7538;53.626;9.906;2022-07-29T13:51:43;4.32;;;2.65;;
14892;SDS011;7538;53.626;9.906;2022-07-29T13:54:11;5.93;;;2.30;;
14892;SDS011;7538;53.626;9.906;2022-07-29T13:56:38;4.45;;;2.42;;
14892;SDS011;7538;53.626;9.906;2022-07-29T13:59:05;2.60;;;2.35;;
14892;SDS011;7538;53.626;9.906;2022-07-29T14:01:32;5.55;;;2.60;;
14892;SDS011;7538;53.626;9.906;2022-07-29T14:03:59;4.93;;;2.70;;
14892;SDS011;7538;53.626;9.906;2022-07-29T14:06:26;2.85;;;2.22;;
14892;SDS011;7538;53.626;9.906;2022-07-29T14:08:53;4.70;;;2.10;;
14892;SDS011;7538;53.626;9.906;2022-07-29T14:11:21;5.95;;;2.20;;
14892;SDS011;7538;53.626;9.906;2022-07-29T14:13:48;6.15;;;2.60;;
14892;SDS011;7538;53.626;9.906;2022-07-29T15:32:33;3.80;;;2.83;;
14892;SDS011;7538;53.626;9.906;2022-07-29T15:35:00;4.63;;;2.28;;
14892;SDS011;7538;53.626;9.906;2022-07-29T15:37:27;4.90;;;2.55;;
14892;SDS011;7538;53.626;9.906;2022-07-29T15:39:55;7.45;;;2.60;;
14892;SDS011;7538;53.626;9.906;2022-07-29T15:42:22;4.50;;;2.63;;
14892;SDS011;7538;53.626;9.906;2022-07-29T15:44:49;5.68;;;2.25;;
14892;SDS011;7538;53.626;9.906;2022-07-29T15:47:16;6.28;;;2.65;;
14892;SDS011;7538;53.626;9.906;2022-07-29T15:49:44;3.60;;;2.42;;
14892;SDS011;7538;53.626;9.906;2022-07-29T15:52:11;2.50;;;2.30;;
14892;SDS011;7538;53.626;9.906;2022-07-29T15:54:38;4.47;;;2.25;;
14892;SDS011;7538;53.626;9.906;2022-07-29T15:57:06;4.03;;;2.67;;
14892;SDS011;7538;53.626;9.906;2022-07-29T15:59:33;4.30;;;2.80;;
14892;SDS011;7538;53.626;9.906;2022-07-29T16:02:00;4.38;;;2.15;;
14892;SDS011;7538;53.626;9.906;2022-07-29T16:04:27;6.65;;;2.78;;
14892;SDS011;7538;53.626;9.906;2022-07-29T16:06:55;4.43;;;2.10;;
14892;SDS011;7538;53.626;9.906;2022-07-29T16:09:22;3.97;;;2.47;;
14892;SDS011;7538;53.626;9.906;2022-07-29T16:11:49;4.40;;;2.60;;
14892;SDS011;7538;53.626;9.906;2022-07-29T16:14:18;4.50;;;2.80;;
14892;SDS011;7538;53.626;9.906;2022-07-29T16:16:45;5.22;;;2.97;;
14892;SDS011;7538;53.626;9.906;2022-07-29T16:19:12;6.97;;;2.65;;
14892;SDS011;7538;53.626;9.906;2022-07-29T16:21:39;4.50;;;2.65;;
14892;SDS011;7538;53.626;9.906;2022-07-29T16:24:07;4.70;;;2.80;;
14892;SDS011;7538;53.626;9.906;2022-07-29T16:26:35;6.63;;;2.67;;
14892;SDS011;7538;53.626;9.906;2022-07-29T16:29:02;3.75;;;2.28;;
14892;SDS011;7538;53.626;9.906;2022-07-29T16:31:29;4.22;;;2.30;;
14892;SDS011;7538;53.626;9.906;2022-07-29T16:33:56;5.30;;;2.47;;
14892;SDS011;7538;53.626;9.906;2022-07-29T16:36:23;4.47;;;2.22;;
14892;SDS011;7538;53.626;9.906;2022-07-29T16:38:50;2.60;;;2.40;;
14892;SDS011;7538;53.626;9.906;2022-07-29T16:41:19;5.65;;;2.60;;